sensor_id;sensor_type;location;lat;lon;timestamp;temperature;humidity
20325;DHT22;10320;49.482;11.256;2023-07-16T04:16:58;49.80;29.70
20325;DHT22;10320;49.482;11.256;2023-07-16T04:19:24;18.80;99.90
20325;DHT22;10320;49.482;11.256;2023-07-16T04:21:50;18.40;99.90
20325;DHT22;10320;49.482;11.256;2023-07-16T04:24:15;18.40;99.90
20325;DHT22;10320;49.482;11.256;2023-07-16T04:26:42;18.40;99.90
20325;DHT22;10320;49.482;11.256;2023-07-16T04:29:08;18.40;99.90
20325;DHT22;10320;49.482;11.256;2023-07-16T04:31:34;18.40;99.90
20325;DHT22;10320;49.482;11.256;2023-07-16T04:33:59;18.40;99.90
20325;DHT22;10320;49.482;11.256;2023-07-16T04:36:25;18.40;99.90
20325;DHT22;10320;49.482;11.256;2023-07-16T04:38:51;18.40;99.90
20325;DHT22;10320;49.482;11.256;2023-07-16T04:41:16;18.40;99.90
20325;DHT22;10320;49.482;11.256;2023-07-16T04:43:42;18.30;99.90
20325;DHT22;10320;49.482;11.256;2023-07-16T04:46:08;18.20;99.90
20325;DHT22;10320;49.482;11.256;2023-07-16T04:48:34;18.20;99.90
20325;DHT22;10320;49.482;11.256;2023-07-16T04:50:59;18.10;99.90
20325;DHT22;10320;49.482;11.256;2023-07-16T04:53:25;18.10;99.90
20325;DHT22;10320;49.482;11.256;2023-07-16T04:55:51;18.20;99.90
20325;DHT22;10320;49.482;11.256;2023-07-16T04:58:17;18.20;99.90
20325;DHT22;10320;49.482;11.256;2023-07-16T05:00:42;18.20;99.90
20325;DHT22;10320;49.482;11.256;2023-07-16T05:03:08;18.20;99.90
20325;DHT22;10320;49.482;11.256;2023-07-16T05:05:34;18.10;99.90
20325;DHT22;10320;49.482;11.256;2023-07-16T05:08:00;18.10;99.90
20325;DHT22;10320;49.482;11.256;2023-07-16T05:10:27;18.00;99.90
20325;DHT22;10320;49.482;11.256;2023-07-16T05:12:53;18.00;99.90
20325;DHT22;10320;49.482;11.256;2023-07-16T05:15:18;18.10;99.90
20325;DHT22;10320;49.482;11.256;2023-07-16T05:17:44;18.20;99.90
20325;DHT22;10320;49.482;11.256;2023-07-16T05:20:10;18.40;99.90
20325;DHT22;10320;49.482;11.256;2023-07-16T05:22:36;18.60;99.90
20325;DHT22;10320;49.482;11.256;2023-07-16T05:25:02;18.70;99.90
20325;DHT22;10320;49.482;11.256;2023-07-16T05:27:28;18.70;99.90
20325;DHT22;10320;49.482;11.256;2023-07-16T05:29:54;18.70;99.90
20325;DHT22;10320;49.482;11.256;2023-07-16T05:32:19;18.60;99.90
20325;DHT22;10320;49.482;11.256;2023-07-16T05:34:45;18.50;99.90
20325;DHT22;10320;49.482;11.256;2023-07-16T05:37:11;18.40;99.90
20325;DHT22;10320;49.482;11.256;2023-07-16T05:39:37;18.60;99.90
20325;DHT22;10320;49.482;11.256;2023-07-16T05:42:03;18.50;99.90
20325;DHT22;10320;49.482;11.256;2023-07-16T05:44:29;18.60;99.90
20325;DHT22;10320;49.482;11.256;2023-07-16T05:46:55;18.60;99.90
20325;DHT22;10320;49.482;11.256;2023-07-16T05:49:20;18.60;99.90
20325;DHT22;10320;49.482;11.256;2023-07-16T05:51:46;18.60;99.90
20325;DHT22;10320;49.482;11.256;2023-07-16T05:54:12;18.70;99.90
20325;DHT22;10320;49.482;11.256;2023-07-16T05:56:37;18.70;99.90
20325;DHT22;10320;49.482;11.256;2023-07-16T05:59:03;18.60;99.90
20325;DHT22;10320;49.482;11.256;2023-07-16T06:01:28;18.50;99.90
20325;DHT22;10320;49.482;11.256;2023-07-16T06:03:54;18.50;99.90
20325;DHT22;10320;49.482;11.256;2023-07-16T06:06:20;18.60;99.90
20325;DHT22;10320;49.482;11.256;2023-07-16T06:08:45;18.70;99.90
20325;DHT22;10320;49.482;11.256;2023-07-16T06:11:12;18.80;99.90
20325;DHT22;10320;49.482;11.256;2023-07-16T06:13:38;18.90;99.90
20325;DHT22;10320;49.482;11.256;2023-07-16T06:16:04;19.00;99.90
20325;DHT22;10320;49.482;11.256;2023-07-16T06:18:29;19.10;99.90
20325;DHT22;10320;49.482;11.256;2023-07-16T06:20:55;19.20;99.90
20325;DHT22;10320;49.482;11.256;2023-07-16T06:23:21;19.30;99.90
20325;DHT22;10320;49.482;11.256;2023-07-16T06:25:47;19.40;99.90
20325;DHT22;10320;49.482;11.256;2023-07-16T06:28:14;19.40;99.90
20325;DHT22;10320;49.482;11.256;2023-07-16T06:30:40;19.40;99.90
20325;DHT22;10320;49.482;11.256;2023-07-16T06:33:06;19.40;99.90
20325;DHT22;10320;49.482;11.256;2023-07-16T06:35:32;19.40;99.90
20325;DHT22;10320;49.482;11.256;2023-07-16T06:37:57;19.40;99.90
20325;DHT22;10320;49.482;11.256;2023-07-16T06:40:24;19.40;99.90
20325;DHT22;10320;49.482;11.256;2023-07-16T06:42:50;19.40;99.90
20325;DHT22;10320;49.482;11.256;2023-07-16T06:45:19;19.40;99.90
20325;DHT22;10320;49.482;11.256;2023-07-16T06:47:45;19.50;99.90
20325;DHT22;10320;49.482;11.256;2023-07-16T06:50:10;19.50;99.90
20325;DHT22;10320;49.482;11.256;2023-07-16T06:52:36;19.30;99.90
20325;DHT22;10320;49.482;11.256;2023-07-16T06:55:02;19.40;99.90
20325;DHT22;10320;49.482;11.256;2023-07-16T06:57:27;19.30;99.90
20325;DHT22;10320;49.482;11.256;2023-07-16T06:59:53;19.20;99.90
20325;DHT22;10320;49.482;11.256;2023-07-16T07:02:19;19.20;99.90
20325;DHT22;10320;49.482;11.256;2023-07-16T07:04:45;19.20;99.90
20325;DHT22;10320;49.482;11.256;2023-07-16T07:07:11;19.50;99.90
20325;DHT22;10320;49.482;11.256;2023-07-16T07:09:36;19.70;99.90
20325;DHT22;10320;49.482;11.256;2023-07-16T07:12:02;19.80;99.90
20325;DHT22;10320;49.482;11.256;2023-07-16T07:14:28;19.90;99.90
20325;DHT22;10320;49.482;11.256;2023-07-16T07:16:54;20.00;99.90
20325;DHT22;10320;49.482;11.256;2023-07-16T07:19:19;20.10;99.90
20325;DHT22;10320;49.482;11.256;2023-07-16T07:21:45;20.20;99.90
20325;DHT22;10320;49.482;11.256;2023-07-16T07:24:12;20.40;99.90
20325;DHT22;10320;49.482;11.256;2023-07-16T07:26:38;20.50;99.90
20325;DHT22;10320;49.482;11.256;2023-07-16T07:29:03;20.50;99.90
20325;DHT22;10320;49.482;11.256;2023-07-16T07:31:29;20.50;99.90
20325;DHT22;10320;49.482;11.256;2023-07-16T07:33:55;20.30;99.90
20325;DHT22;10320;49.482;11.256;2023-07-16T07:36:22;20.10;99.90
20325;DHT22;10320;49.482;11.256;2023-07-16T07:38:48;19.80;99.90
20325;DHT22;10320;49.482;11.256;2023-07-16T07:41:14;19.70;99.90
20325;DHT22;10320;49.482;11.256;2023-07-16T07:43:39;19.60;99.90
20325;DHT22;10320;49.482;11.256;2023-07-16T07:46:05;19.70;99.90
20325;DHT22;10320;49.482;11.256;2023-07-16T07:48:31;19.80;99.90
20325;DHT22;10320;49.482;11.256;2023-07-16T07:50:57;20.00;99.90
20325;DHT22;10320;49.482;11.256;2023-07-16T07:53:23;20.00;99.90
20325;DHT22;10320;49.482;11.256;2023-07-16T07:55:48;20.00;99.90
20325;DHT22;10320;49.482;11.256;2023-07-16T07:58:14;20.10;99.90
20325;DHT22;10320;49.482;11.256;2023-07-16T08:00:40;20.30;99.90
20325;DHT22;10320;49.482;11.256;2023-07-16T08:03:05;20.30;99.90
20325;DHT22;10320;49.482;11.256;2023-07-16T08:05:31;20.40;99.90
20325;DHT22;10320;49.482;11.256;2023-07-16T08:07:57;20.50;99.90
20325;DHT22;10320;49.482;11.256;2023-07-16T08:10:23;20.70;99.90
20325;DHT22;10320;49.482;11.256;2023-07-16T08:12:48;20.80;99.90
20325;DHT22;10320;49.482;11.256;2023-07-16T08:15:14;20.80;99.90
20325;DHT22;10320;49.482;11.256;2023-07-16T08:17:41;20.60;99.90
20325;DHT22;10320;49.482;11.256;2023-07-16T08:20:08;20.40;99.90
20325;DHT22;10320;49.482;11.256;2023-07-16T08:22:33;20.50;99.90
20325;DHT22;10320;49.482;11.256;2023-07-16T08:24:59;20.80;99.90
20325;DHT22;10320;49.482;11.256;2023-07-16T08:27:25;21.00;99.90
20325;DHT22;10320;49.482;11.256;2023-07-16T08:29:50;21.20;99.90
20325;DHT22;10320;49.482;11.256;2023-07-16T08:32:16;21.30;99.90
20325;DHT22;10320;49.482;11.256;2023-07-16T08:34:42;21.00;99.90
20325;DHT22;10320;49.482;11.256;2023-07-16T08:37:07;21.00;99.90
20325;DHT22;10320;49.482;11.256;2023-07-16T08:39:33;21.20;99.90
20325;DHT22;10320;49.482;11.256;2023-07-16T08:41:59;21.30;99.90
20325;DHT22;10320;49.482;11.256;2023-07-16T08:44:25;21.40;99.90
20325;DHT22;10320;49.482;11.256;2023-07-16T08:46:52;21.30;99.90
20325;DHT22;10320;49.482;11.256;2023-07-16T08:49:18;21.50;99.90
20325;DHT22;10320;49.482;11.256;2023-07-16T08:51:47;21.50;99.90
20325;DHT22;10320;49.482;11.256;2023-07-16T08:54:13;21.60;99.90
20325;DHT22;10320;49.482;11.256;2023-07-16T08:56:45;21.50;99.90
20325;DHT22;10320;49.482;11.256;2023-07-16T08:59:11;21.50;99.90
20325;DHT22;10320;49.482;11.256;2023-07-16T09:01:38;21.30;99.90
20325;DHT22;10320;49.482;11.256;2023-07-16T09:04:03;21.30;99.90
20325;DHT22;10320;49.482;11.256;2023-07-16T09:06:29;21.50;99.90
20325;DHT22;10320;49.482;11.256;2023-07-16T09:08:55;21.40;99.90
20325;DHT22;10320;49.482;11.256;2023-07-16T09:11:21;21.40;99.90
20325;DHT22;10320;49.482;11.256;2023-07-16T09:13:48;21.50;99.90
20325;DHT22;10320;49.482;11.256;2023-07-16T09:16:14;21.50;99.90
20325;DHT22;10320;49.482;11.256;2023-07-16T09:18:42;21.50;99.90
20325;DHT22;10320;49.482;11.256;2023-07-16T09:21:08;21.60;99.90
20325;DHT22;10320;49.482;11.256;2023-07-16T09:23:34;22.00;99.90
20325;DHT22;10320;49.482;11.256;2023-07-16T09:26:00;22.20;99.90
20325;DHT22;10320;49.482;11.256;2023-07-16T09:28:26;22.20;99.90
20325;DHT22;10320;49.482;11.256;2023-07-16T09:30:52;22.30;99.90
20325;DHT22;10320;49.482;11.256;2023-07-16T09:33:22;22.40;99.90
20325;DHT22;10320;49.482;11.256;2023-07-16T09:35:51;22.30;99.90
20325;DHT22;10320;49.482;11.256;2023-07-16T09:38:18;22.30;99.90
20325;DHT22;10320;49.482;11.256;2023-07-16T09:40:44;22.40;99.90
20325;DHT22;10320;49.482;11.256;2023-07-16T09:43:11;22.60;99.90
20325;DHT22;10320;49.482;11.256;2023-07-16T09:45:37;23.10;99.90
20325;DHT22;10320;49.482;11.256;2023-07-16T09:48:03;23.60;99.90
20325;DHT22;10320;49.482;11.256;2023-07-16T09:50:34;23.70;99.90
20325;DHT22;10320;49.482;11.256;2023-07-16T09:53:01;23.90;99.90
20325;DHT22;10320;49.482;11.256;2023-07-16T09:55:32;24.10;99.90
20325;DHT22;10320;49.482;11.256;2023-07-16T09:58:05;24.20;99.90
20325;DHT22;10320;49.482;11.256;2023-07-16T10:00:32;24.40;99.90
20325;DHT22;10320;49.482;11.256;2023-07-16T10:02:58;24.50;99.90
20325;DHT22;10320;49.482;11.256;2023-07-16T10:05:26;24.00;99.90
20325;DHT22;10320;49.482;11.256;2023-07-16T10:07:56;24.10;99.90
20325;DHT22;10320;49.482;11.256;2023-07-16T10:10:48;24.40;99.90
20325;DHT22;10320;49.482;11.256;2023-07-16T10:13:14;24.40;99.90
20325;DHT22;10320;49.482;11.256;2023-07-16T10:15:52;24.60;99.90
20325;DHT22;10320;49.482;11.256;2023-07-16T10:18:28;24.80;99.90
20325;DHT22;10320;49.482;11.256;2023-07-16T10:21:04;25.00;99.90
20325;DHT22;10320;49.482;11.256;2023-07-16T10:23:41;24.90;99.90
20325;DHT22;10320;49.482;11.256;2023-07-16T10:26:08;24.90;99.90
20325;DHT22;10320;49.482;11.256;2023-07-16T10:28:38;25.00;99.90
20325;DHT22;10320;49.482;11.256;2023-07-16T10:31:04;25.10;99.90
20325;DHT22;10320;49.482;11.256;2023-07-16T10:33:32;25.20;99.90
20325;DHT22;10320;49.482;11.256;2023-07-16T10:35:59;25.40;99.90
20325;DHT22;10320;49.482;11.256;2023-07-16T10:38:25;25.40;99.90
20325;DHT22;10320;49.482;11.256;2023-07-16T10:40:51;25.20;99.90
20325;DHT22;10320;49.482;11.256;2023-07-16T10:43:17;25.00;99.90
20325;DHT22;10320;49.482;11.256;2023-07-16T10:45:42;24.90;99.90
20325;DHT22;10320;49.482;11.256;2023-07-16T10:48:10;25.10;99.90
20325;DHT22;10320;49.482;11.256;2023-07-16T10:50:36;25.00;99.90
20325;DHT22;10320;49.482;11.256;2023-07-16T10:53:02;25.20;99.90
20325;DHT22;10320;49.482;11.256;2023-07-16T10:55:29;25.30;99.90
20325;DHT22;10320;49.482;11.256;2023-07-16T10:57:57;25.30;99.90
20325;DHT22;10320;49.482;11.256;2023-07-16T11:00:23;25.20;99.90
20325;DHT22;10320;49.482;11.256;2023-07-16T11:02:52;25.20;99.90
20325;DHT22;10320;49.482;11.256;2023-07-16T11:05:18;25.10;99.90
20325;DHT22;10320;49.482;11.256;2023-07-16T11:07:48;25.10;99.90
20325;DHT22;10320;49.482;11.256;2023-07-16T11:10:18;25.20;99.90
20325;DHT22;10320;49.482;11.256;2023-07-16T11:12:44;25.10;99.90
20325;DHT22;10320;49.482;11.256;2023-07-16T11:15:10;25.30;99.90
20325;DHT22;10320;49.482;11.256;2023-07-16T11:17:39;25.50;99.90
20325;DHT22;10320;49.482;11.256;2023-07-16T11:20:07;25.50;99.90
20325;DHT22;10320;49.482;11.256;2023-07-16T11:22:37;25.70;99.90
20325;DHT22;10320;49.482;11.256;2023-07-16T11:25:04;25.80;99.90
20325;DHT22;10320;49.482;11.256;2023-07-16T11:27:35;25.90;99.90
20325;DHT22;10320;49.482;11.256;2023-07-16T11:30:01;26.00;99.90
20325;DHT22;10320;49.482;11.256;2023-07-16T11:35:06;26.10;99.90
20325;DHT22;10320;49.482;11.256;2023-07-16T11:37:34;25.90;99.90
20325;DHT22;10320;49.482;11.256;2023-07-16T11:40:08;25.70;99.90
20325;DHT22;10320;49.482;11.256;2023-07-16T11:42:36;25.50;99.90
20325;DHT22;10320;49.482;11.256;2023-07-16T11:54:49;25.40;99.90
20325;DHT22;10320;49.482;11.256;2023-07-16T11:57:17;26.20;99.90
20325;DHT22;10320;49.482;11.256;2023-07-16T11:59:43;26.40;99.90
20325;DHT22;10320;49.482;11.256;2023-07-16T12:02:09;26.50;99.90
20325;DHT22;10320;49.482;11.256;2023-07-16T12:04:35;26.80;99.90
20325;DHT22;10320;49.482;11.256;2023-07-16T12:07:00;26.90;99.90
20325;DHT22;10320;49.482;11.256;2023-07-16T12:09:26;27.20;99.90
20325;DHT22;10320;49.482;11.256;2023-07-16T12:11:52;27.10;99.90
20325;DHT22;10320;49.482;11.256;2023-07-16T12:14:18;27.20;99.90
20325;DHT22;10320;49.482;11.256;2023-07-16T12:16:43;27.00;99.90
20325;DHT22;10320;49.482;11.256;2023-07-16T12:19:09;27.10;99.90
20325;DHT22;10320;49.482;11.256;2023-07-16T12:21:35;27.00;99.90
20325;DHT22;10320;49.482;11.256;2023-07-16T12:24:01;27.20;99.90
20325;DHT22;10320;49.482;11.256;2023-07-16T12:26:27;27.10;99.90
20325;DHT22;10320;49.482;11.256;2023-07-16T12:28:53;27.20;99.90
20325;DHT22;10320;49.482;11.256;2023-07-16T12:31:19;27.30;99.90
20325;DHT22;10320;49.482;11.256;2023-07-16T12:33:46;27.30;99.90
20325;DHT22;10320;49.482;11.256;2023-07-16T12:55:43;27.10;99.90
20325;DHT22;10320;49.482;11.256;2023-07-16T12:58:09;27.70;99.90
20325;DHT22;10320;49.482;11.256;2023-07-16T13:00:35;27.90;99.90
20325;DHT22;10320;49.482;11.256;2023-07-16T13:03:00;27.80;99.90
20325;DHT22;10320;49.482;11.256;2023-07-16T13:27:23;27.80;99.90
20325;DHT22;10320;49.482;11.256;2023-07-16T13:29:49;28.40;99.90
20325;DHT22;10320;49.482;11.256;2023-07-16T13:32:15;29.10;99.90
20325;DHT22;10320;49.482;11.256;2023-07-16T13:34:41;30.00;99.90
20325;DHT22;10320;49.482;11.256;2023-07-16T13:37:07;30.90;99.90
20325;DHT22;10320;49.482;11.256;2023-07-16T13:39:32;32.00;99.90
20325;DHT22;10320;49.482;11.256;2023-07-16T13:41:58;32.90;99.80
20325;DHT22;10320;49.482;11.256;2023-07-16T13:44:24;34.00;97.70
20325;DHT22;10320;49.482;11.256;2023-07-16T13:46:49;35.10;95.80
20325;DHT22;10320;49.482;11.256;2023-07-16T13:49:15;35.80;91.40
20325;DHT22;10320;49.482;11.256;2023-07-16T13:51:41;35.90;90.90
20325;DHT22;10320;49.482;11.256;2023-07-16T13:54:06;36.80;85.60
20325;DHT22;10320;49.482;11.256;2023-07-16T13:56:32;37.50;85.90
20325;DHT22;10320;49.482;11.256;2023-07-16T13:58:58;37.20;76.10
20325;DHT22;10320;49.482;11.256;2023-07-16T14:01:24;36.80;74.40
20325;DHT22;10320;49.482;11.256;2023-07-16T14:03:50;36.70;72.90
20325;DHT22;10320;49.482;11.256;2023-07-16T14:06:16;36.10;72.90
20325;DHT22;10320;49.482;11.256;2023-07-16T14:08:41;35.90;72.10
20325;DHT22;10320;49.482;11.256;2023-07-16T14:11:07;35.80;73.40
20325;DHT22;10320;49.482;11.256;2023-07-16T14:13:33;36.80;72.20
20325;DHT22;10320;49.482;11.256;2023-07-16T14:15:58;37.70;71.30
20325;DHT22;10320;49.482;11.256;2023-07-16T14:18:24;38.70;72.10
20325;DHT22;10320;49.482;11.256;2023-07-16T14:23:16;39.30;65.60
20325;DHT22;10320;49.482;11.256;2023-07-16T14:25:41;37.70;63.80
20325;DHT22;10320;49.482;11.256;2023-07-16T14:40:18;36.90;65.30
20325;DHT22;10320;49.482;11.256;2023-07-16T21:57:11;36.70;67.60
20325;DHT22;10320;49.482;11.256;2023-07-16T21:59:36;17.90;99.90
20325;DHT22;10320;49.482;11.256;2023-07-16T22:02:02;17.50;99.90
20325;DHT22;10320;49.482;11.256;2023-07-16T22:04:28;17.50;99.90
20325;DHT22;10320;49.482;11.256;2023-07-16T22:06:54;17.40;99.90
20325;DHT22;10320;49.482;11.256;2023-07-16T22:09:19;17.30;99.90
20325;DHT22;10320;49.482;11.256;2023-07-16T22:11:45;17.30;99.90
20325;DHT22;10320;49.482;11.256;2023-07-16T22:14:11;17.30;99.90
20325;DHT22;10320;49.482;11.256;2023-07-16T22:16:37;17.20;99.90
20325;DHT22;10320;49.482;11.256;2023-07-16T22:19:06;17.10;99.90
20325;DHT22;10320;49.482;11.256;2023-07-16T22:21:36;17.00;99.90
20325;DHT22;10320;49.482;11.256;2023-07-16T22:24:06;17.00;99.90
20325;DHT22;10320;49.482;11.256;2023-07-16T22:26:32;16.90;99.90
20325;DHT22;10320;49.482;11.256;2023-07-16T22:28:59;16.90;99.90
20325;DHT22;10320;49.482;11.256;2023-07-16T22:36:17;16.90;99.90
20325;DHT22;10320;49.482;11.256;2023-07-16T22:38:43;16.80;99.90
20325;DHT22;10320;49.482;11.256;2023-07-16T22:41:09;16.70;99.90
20325;DHT22;10320;49.482;11.256;2023-07-16T22:43:35;16.70;99.90
20325;DHT22;10320;49.482;11.256;2023-07-16T22:46:01;16.60;99.90
20325;DHT22;10320;49.482;11.256;2023-07-16T22:48:26;16.50;99.90
20325;DHT22;10320;49.482;11.256;2023-07-16T22:50:52;16.50;99.90
20325;DHT22;10320;49.482;11.256;2023-07-16T22:53:18;16.40;99.90
20325;DHT22;10320;49.482;11.256;2023-07-16T22:55:43;16.30;99.90
20325;DHT22;10320;49.482;11.256;2023-07-16T22:58:10;16.30;99.90
20325;DHT22;10320;49.482;11.256;2023-07-16T23:00:37;16.20;99.90
20325;DHT22;10320;49.482;11.256;2023-07-16T23:03:03;16.20;99.90
20325;DHT22;10320;49.482;11.256;2023-07-16T23:05:29;16.20;99.90
20325;DHT22;10320;49.482;11.256;2023-07-16T23:07:55;16.20;99.90
20325;DHT22;10320;49.482;11.256;2023-07-16T23:10:21;16.10;99.90
20325;DHT22;10320;49.482;11.256;2023-07-16T23:12:47;16.10;99.90
20325;DHT22;10320;49.482;11.256;2023-07-16T23:15:13;16.10;99.90
20325;DHT22;10320;49.482;11.256;2023-07-16T23:17:41;16.00;99.90
20325;DHT22;10320;49.482;11.256;2023-07-16T23:20:07;15.90;99.90
20325;DHT22;10320;49.482;11.256;2023-07-16T23:22:34;15.80;99.90
20325;DHT22;10320;49.482;11.256;2023-07-16T23:25:00;15.80;99.90
20325;DHT22;10320;49.482;11.256;2023-07-16T23:27:25;15.80;99.90
20325;DHT22;10320;49.482;11.256;2023-07-16T23:29:51;15.80;99.90
20325;DHT22;10320;49.482;11.256;2023-07-16T23:32:18;15.80;99.90
20325;DHT22;10320;49.482;11.256;2023-07-16T23:34:43;15.70;99.90
20325;DHT22;10320;49.482;11.256;2023-07-16T23:37:09;15.60;99.90
20325;DHT22;10320;49.482;11.256;2023-07-16T23:39:35;15.50;99.90
20325;DHT22;10320;49.482;11.256;2023-07-16T23:42:00;15.50;99.90
20325;DHT22;10320;49.482;11.256;2023-07-16T23:44:26;15.40;99.90
20325;DHT22;10320;49.482;11.256;2023-07-16T23:46:54;15.40;99.90
20325;DHT22;10320;49.482;11.256;2023-07-16T23:49:22;15.40;99.90
20325;DHT22;10320;49.482;11.256;2023-07-16T23:51:48;15.30;99.90
20325;DHT22;10320;49.482;11.256;2023-07-16T23:54:15;15.30;99.90
20325;DHT22;10320;49.482;11.256;2023-07-16T23:56:41;15.30;99.90
20325;DHT22;10320;49.482;11.256;2023-07-16T23:59:07;15.30;99.90
